Time;durP1;ratioP1;P1;durP2;ratioP2;P2;SDS_P1;SDS_P2;PMS_P1;PMS_P2;Temp;Humidity;BMP_temperature;BMP_pressure;BME280_temperature;BME280_humidity;BME280_pressure;Samples;Min_cycle;Max_cycle;Signal;HPM_P1;HPM_P2
2022/06/16 00:01:50;;;;;;;7.50;3.65;;;23.00;59.40;;;;;;5044882;28;20071;-70
2022/06/16 00:04:16;;;;;;;8.50;3.72;;;23.00;59.50;;;;;;5046820;28;20037;-68
2022/06/16 00:06:42;;;;;;;7.78;3.85;;;23.00;59.40;;;;;;5045249;28;20021;-70
2022/06/16 00:09:08;;;;;;;9.75;3.85;;;23.00;59.50;;;;;;5046204;28;20432;-70
2022/06/16 00:11:33;;;;;;;8.65;3.47;;;22.90;59.40;;;;;;5046262;28;20037;-69
2022/06/16 00:13:59;;;;;;;7.88;3.75;;;22.90;59.40;;;;;;5046316;28;20083;-70
2022/06/16 00:16:25;;;;;;;5.93;3.20;;;23.00;59.50;;;;;;5045835;28;20025;-69
2022/06/16 00:18:50;;;;;;;7.32;3.60;;;22.90;59.30;;;;;;5045544;28;20032;-70
2022/06/16 00:21:16;;;;;;;8.35;3.50;;;22.90;59.40;;;;;;5045092;28;20064;-69
2022/06/16 00:23:42;;;;;;;7.03;3.30;;;22.90;59.30;;;;;;5047591;28;20063;-70
2022/06/16 00:26:16;;;;;;;9.60;3.78;;;22.90;59.30;;;;;;5045649;28;20029;-70
2022/06/16 00:28:42;;;;;;;7.77;3.50;;;22.90;59.30;;;;;;5046683;28;20029;-69
2022/06/16 00:31:08;;;;;;;6.10;3.40;;;22.90;59.30;;;;;;5060212;28;20037;-70
2022/06/16 00:33:34;;;;;;;7.50;3.50;;;22.90;59.20;;;;;;5045164;28;20031;-69
2022/06/16 00:36:00;;;;;;;7.32;3.45;;;22.90;59.20;;;;;;5043902;28;20025;-70
2022/06/16 00:38:25;;;;;;;6.78;3.15;;;22.80;59.10;;;;;;5045067;28;20024;-69
2022/06/16 00:40:51;;;;;;;6.35;3.13;;;22.80;59.20;;;;;;5046058;28;20036;-69
2022/06/16 00:43:17;;;;;;;7.43;3.50;;;22.80;59.10;;;;;;5044205;28;20055;-70
2022/06/16 00:46:06;;;;;;;6.65;3.58;;;22.80;59.10;;;;;;5044036;28;20048;-69
2022/06/16 00:48:38;;;;;;;6.22;3.13;;;22.80;59.10;;;;;;5046322;28;20029;-70
2022/06/16 00:51:12;;;;;;;8.40;3.58;;;22.80;59.10;;;;;;5061359;28;20029;-70
2022/06/16 00:53:38;;;;;;;7.63;3.53;;;22.80;59.20;;;;;;5046331;28;20029;-69
2022/06/16 00:56:05;;;;;;;7.43;3.35;;;22.80;59.20;;;;;;5061308;28;20347;-70
2022/06/16 00:58:31;;;;;;;6.65;3.25;;;22.80;59.20;;;;;;5060125;28;20485;-69
2022/06/16 01:00:57;;;;;;;8.85;3.28;;;22.80;59.20;;;;;;5060468;28;20115;-68
2022/06/16 01:06:27;;;;;;;5.30;3.10;;;22.70;59.20;;;;;;5046164;28;20094;-69
2022/06/16 01:08:59;;;;;;;6.20;3.13;;;22.70;59.20;;;;;;5047239;28;20021;-69
2022/06/16 01:15:00;;;;;;;7.82;3.58;;;22.70;59.20;;;;;;5045528;28;20052;-69
2022/06/16 01:17:41;;;;;;;5.72;3.20;;;22.70;59.20;;;;;;5043930;28;20037;-70
2022/06/16 01:20:44;;;;;;;9.18;3.50;;;22.70;59.20;;;;;;5049036;28;20021;-69
2022/06/16 01:23:28;;;;;;;7.05;3.40;;;22.70;59.30;;;;;;5063179;28;20021;-69
2022/06/16 01:26:21;;;;;;;7.97;3.30;;;22.70;59.20;;;;;;5048410;28;20052;-69
2022/06/16 01:29:02;;;;;;;8.63;3.00;;;22.70;59.20;;;;;;5048485;28;20113;-69
2022/06/16 01:31:39;;;;;;;5.43;3.20;;;22.60;59.30;;;;;;5048296;28;20025;-69
2022/06/16 01:34:23;;;;;;;6.53;3.20;;;22.70;59.30;;;;;;5048884;28;20086;-69
2022/06/16 01:36:54;;;;;;;6.80;3.08;;;22.60;59.30;;;;;;5046057;28;20059;-69
2022/06/16 01:39:34;;;;;;;7.28;2.88;;;22.60;59.30;;;;;;5062794;28;20048;-69
2022/06/16 01:42:14;;;;;;;6.05;3.00;;;22.60;59.30;;;;;;5048981;28;20029;-69
2022/06/16 01:45:11;;;;;;;6.57;3.33;;;22.60;59.40;;;;;;5064185;28;20033;-69
2022/06/16 01:47:38;;;;;;;6.07;3.13;;;22.60;59.40;;;;;;5044564;28;20099;-69
2022/06/16 01:50:11;;;;;;;7.35;3.50;;;22.60;59.40;;;;;;5061845;28;20029;-70
2022/06/16 01:52:39;;;;;;;6.07;3.00;;;22.60;59.50;;;;;;5062965;28;20017;-69
2022/06/16 01:55:12;;;;;;;6.15;3.10;;;22.60;59.50;;;;;;5063092;28;20044;-70
2022/06/16 01:57:43;;;;;;;6.95;2.95;;;22.50;59.50;;;;;;5029778;28;20017;-68
2022/06/16 02:00:19;;;;;;;5.72;2.80;;;22.50;59.50;;;;;;5045953;28;20068;-69
2022/06/16 02:02:45;;;;;;;6.43;3.00;;;22.50;59.60;;;;;;5049184;28;20167;-69
2022/06/16 02:05:15;;;;;;;6.90;3.30;;;22.60;60.20;;;;;;5063944;28;20300;-69
2022/06/16 02:08:17;;;;;;;6.45;3.00;;;22.50;59.60;;;;;;5063125;28;20028;-68
2022/06/16 02:10:51;;;;;;;6.88;2.90;;;22.50;59.60;;;;;;5048317;28;20048;-69
2022/06/16 02:13:20;;;;;;;6.57;3.30;;;22.50;59.70;;;;;;5061154;28;20125;-69
2022/06/16 02:16:28;;;;;;;5.07;2.90;;;22.50;59.60;;;;;;5030589;28;20021;-69
2022/06/16 02:18:54;;;;;;;5.93;2.90;;;22.50;59.60;;;;;;5050976;28;20072;-69
2022/06/16 02:21:35;;;;;;;5.50;3.05;;;22.40;59.60;;;;;;5047603;28;20025;-69
2022/06/16 02:24:04;;;;;;;6.60;3.05;;;22.40;59.50;;;;;;5049192;28;20088;-69
2022/06/16 02:26:30;;;;;;;6.57;2.78;;;22.40;59.70;;;;;;5059728;28;20037;-69
2022/06/16 02:28:58;;;;;;;7.55;2.90;;;22.40;59.70;;;;;;5060559;28;20456;-69
2022/06/16 02:31:47;;;;;;;5.70;2.97;;;22.40;59.60;;;;;;5047800;28;20468;-69
2022/06/16 02:34:20;;;;;;;5.35;2.60;;;22.40;59.70;;;;;;5045139;28;20071;-69
2022/06/16 02:37:10;;;;;;;5.85;2.85;;;22.40;59.70;;;;;;5045431;28;20108;-69
2022/06/16 02:40:13;;;;;;;5.38;2.95;;;22.40;59.70;;;;;;5048698;28;20021;-68
2022/06/16 02:42:48;;;;;;;6.13;2.80;;;22.40;59.70;;;;;;5047775;28;20097;-69
2022/06/16 02:45:18;;;;;;;6.63;3.15;;;22.40;59.80;;;;;;5046282;28;20079;-69
2022/06/16 02:48:11;;;;;;;6.13;2.92;;;22.30;59.70;;;;;;5049158;28;20401;-69
2022/06/16 02:51:20;;;;;;;5.10;2.80;;;22.30;59.80;;;;;;5048755;28;20092;-69
2022/06/16 02:57:06;;;;;;;5.15;3.10;;;22.30;59.80;;;;;;5052133;28;20091;-69
2022/06/16 02:59:53;;;;;;;6.47;2.80;;;22.30;59.70;;;;;;4998969;28;20038;-69
2022/06/16 03:02:21;;;;;;;6.00;2.85;;;22.30;59.80;;;;;;4995503;28;20047;-69
2022/06/16 03:04:56;;;;;;;6.75;3.30;;;22.30;59.90;;;;;;4993222;28;20060;-69
2022/06/16 03:07:22;;;;;;;;;;;22.30;59.90;;;;;;4998007;28;20064;-69
2022/06/16 03:09:47;;;;;;;4.55;2.70;;;22.30;60.00;;;;;;5009096;28;20393;-69
2022/06/16 03:12:13;;;;;;;4.72;2.70;;;22.30;59.90;;;;;;5010116;28;20034;-69
2022/06/16 03:14:39;;;;;;;5.85;3.00;;;22.30;59.90;;;;;;5014613;28;20030;-69
2022/06/16 03:17:05;;;;;;;5.60;2.80;;;22.20;59.80;;;;;;5007003;28;20045;-69
2022/06/16 03:19:31;;;;;;;5.13;2.88;;;22.20;59.80;;;;;;5009843;28;20036;-69
2022/06/16 03:21:56;;;;;;;5.45;2.90;;;22.20;59.90;;;;;;5008917;28;20038;-69
2022/06/16 03:24:22;;;;;;;5.22;2.80;;;22.20;59.90;;;;;;5010981;28;20422;-69
2022/06/16 03:26:48;;;;;;;5.82;3.03;;;22.20;59.80;;;;;;5014609;28;20033;-69
2022/06/16 03:29:14;;;;;;;6.18;2.65;;;22.20;59.90;;;;;;4999809;28;20608;-69
2022/06/16 03:31:39;;;;;;;6.05;2.92;;;22.20;60.00;;;;;;4984263;28;20110;-68
2022/06/16 03:34:05;;;;;;;5.07;2.72;;;22.20;59.90;;;;;;4983055;28;20038;-69
2022/06/16 03:36:31;;;;;;;5.53;2.70;;;22.20;59.90;;;;;;5008823;28;20488;-69
2022/06/16 03:38:57;;;;;;;6.15;2.97;;;22.20;59.80;;;;;;5048308;28;20029;-68
2022/06/16 03:41:22;;;;;;;5.80;3.08;;;22.20;59.90;;;;;;5046025;28;20025;-69
2022/06/16 03:43:48;;;;;;;4.53;2.67;;;22.10;59.90;;;;;;5044629;28;20493;-69
2022/06/16 03:46:16;;;;;;;5.50;2.70;;;22.10;59.90;;;;;;5046421;28;20044;-69
2022/06/16 03:48:41;;;;;;;5.18;2.63;;;22.10;59.90;;;;;;5046962;28;20116;-69
2022/06/16 03:51:08;;;;;;;5.38;2.70;;;22.10;60.00;;;;;;5047228;28;20105;-69
2022/06/16 03:53:35;;;;;;;4.95;2.70;;;22.10;59.90;;;;;;5046128;28;20116;-69
2022/06/16 03:56:00;;;;;;;5.13;2.85;;;22.10;59.90;;;;;;5044957;28;20025;-69
2022/06/16 03:58:26;;;;;;;5.25;2.80;;;22.10;59.90;;;;;;5045937;28;20021;-68
2022/06/16 04:00:52;;;;;;;5.43;2.60;;;22.10;59.90;;;;;;5046131;28;20069;-69
2022/06/16 04:06:02;;;;;;;5.40;2.80;;;22.00;59.90;;;;;;5045869;28;20183;-69
2022/06/16 04:08:28;;;;;;;5.78;2.97;;;22.10;60.00;;;;;;5045360;28;20036;-69
2022/06/16 04:10:53;;;;;;;5.63;2.95;;;22.00;59.90;;;;;;5060049;28;20025;-69
2022/06/16 04:13:19;;;;;;;5.03;2.70;;;22.00;60.00;;;;;;5041953;28;20540;-69
2022/06/16 04:15:45;;;;;;;4.03;2.60;;;22.00;60.00;;;;;;5042803;28;20025;-69
2022/06/16 04:18:12;;;;;;;5.43;2.70;;;22.00;59.90;;;;;;5043120;28;20025;-69
2022/06/16 04:20:37;;;;;;;4.38;2.60;;;22.00;59.90;;;;;;5045003;28;20128;-69
2022/06/16 04:23:06;;;;;;;6.03;2.75;;;22.00;60.00;;;;;;5043577;28;20190;-69
2022/06/16 04:25:32;;;;;;;5.47;2.58;;;22.00;60.10;;;;;;5043273;28;20066;-69
2022/06/16 04:28:02;;;;;;;5.40;2.60;;;22.00;60.10;;;;;;5043446;28;20021;-69
2022/06/16 04:30:28;;;;;;;4.20;2.33;;;22.00;60.10;;;;;;5041793;28;20029;-68
2022/06/16 04:32:53;;;;;;;6.30;2.70;;;22.00;60.00;;;;;;5043940;28;20082;-69
2022/06/16 04:35:19;;;;;;;4.68;2.60;;;22.00;60.00;;;;;;5045236;28;20033;-69
2022/06/16 04:37:45;;;;;;;7.18;2.85;;;22.00;60.00;;;;;;5045138;28;20123;-69
2022/06/16 04:40:12;;;;;;;7.15;2.75;;;22.00;60.10;;;;;;5045329;28;20485;-69
2022/06/16 04:42:38;;;;;;;6.00;2.58;;;22.00;60.00;;;;;;5045608;28;20052;-69
2022/06/16 04:45:04;;;;;;;6.40;2.80;;;22.00;60.10;;;;;;5045040;28;20033;-69
2022/06/16 04:47:30;;;;;;;4.70;2.60;;;22.00;60.00;;;;;;5042669;28;20836;-69
2022/06/16 04:49:55;;;;;;;5.35;2.65;;;22.00;60.00;;;;;;5042443;28;20037;-69
2022/06/16 04:52:21;;;;;;;4.63;2.60;;;22.00;60.10;;;;;;5042772;28;20017;-68
2022/06/16 04:54:47;;;;;;;4.93;2.70;;;22.00;60.00;;;;;;5042943;28;20139;-69
2022/06/16 04:57:13;;;;;;;5.22;2.53;;;22.00;60.00;;;;;;5044314;28;20063;-69
2022/06/16 04:59:38;;;;;;;5.70;2.47;;;22.00;60.00;;;;;;5043881;28;20118;-69
2022/06/16 05:02:04;;;;;;;7.47;2.58;;;22.00;59.90;;;;;;5040883;28;20025;-68
2022/06/16 05:04:30;;;;;;;3.97;2.40;;;22.00;60.10;;;;;;5042659;28;20048;-67
2022/06/16 05:06:56;;;;;;;7.03;2.70;;;22.00;60.00;;;;;;5043435;28;20042;-68
2022/06/16 05:09:23;;;;;;;13.60;6.38;;;22.00;59.80;;;;;;5043704;28;20140;-68
2022/06/16 05:11:49;;;;;;;14.52;8.45;;;21.90;57.60;;;;;;5046275;28;20051;-69
2022/06/16 05:14:14;;;;;;;15.40;8.77;;;21.90;54.10;;;;;;5040910;28;20417;-69
2022/06/16 05:16:40;;;;;;;16.08;9.05;;;21.80;53.50;;;;;;5044105;28;20555;-69
2022/06/16 05:19:05;;;;;;;16.55;8.85;;;21.70;53.00;;;;;;5044529;28;20051;-68
2022/06/16 05:21:31;;;;;;;15.60;9.40;;;21.70;53.30;;;;;;5040812;28;20029;-69
2022/06/16 05:23:57;;;;;;;16.27;9.32;;;21.60;54.00;;;;;;5027503;28;20037;-70
2022/06/16 05:26:22;;;;;;;19.50;9.07;;;21.60;53.70;;;;;;5037410;28;20741;-69
2022/06/16 05:28:48;;;;;;;15.23;8.18;;;21.60;53.90;;;;;;5040285;28;20437;-68
2022/06/16 05:31:14;;;;;;;16.80;10.15;;;21.50;54.40;;;;;;5040467;28;20036;-69
2022/06/16 05:33:39;;;;;;;17.85;8.90;;;21.40;54.20;;;;;;5042581;28;20607;-67
2022/06/16 05:36:07;;;;;;;17.00;8.02;;;21.40;55.10;;;;;;5043215;28;20049;-69
2022/06/16 05:38:33;;;;;;;12.40;6.30;;;21.50;55.20;;;;;;5044380;28;20448;-67
2022/06/16 05:41:01;;;;;;;12.40;6.43;;;21.50;55.70;;;;;;5045042;28;20128;-68
2022/06/16 05:43:27;;;;;;;10.52;5.43;;;21.50;55.90;;;;;;5044310;28;20052;-69
2022/06/16 05:45:52;;;;;;;13.15;5.32;;;21.50;56.30;;;;;;5045191;28;20136;-69
2022/06/16 05:48:18;;;;;;;12.73;5.68;;;21.60;56.50;;;;;;5043953;28;20045;-70
2022/06/16 05:50:44;;;;;;;9.63;5.13;;;21.60;57.00;;;;;;5046460;28;20025;-69
2022/06/16 05:53:10;;;;;;;11.02;5.10;;;21.60;56.90;;;;;;5044288;28;20033;-69
2022/06/16 05:55:35;;;;;;;9.68;4.68;;;21.60;56.90;;;;;;5044338;28;20660;-69
2022/06/16 05:58:04;;;;;;;11.82;4.78;;;21.60;56.90;;;;;;5045441;28;20024;-69
2022/06/16 06:00:30;;;;;;;12.27;4.50;;;21.60;56.90;;;;;;5044883;28;20850;-68
2022/06/16 06:02:57;;;;;;;9.77;4.20;;;21.60;57.00;;;;;;5045798;28;20469;-68
2022/06/16 06:05:23;;;;;;;10.75;4.97;;;21.70;57.00;;;;;;5043793;28;20465;-69
2022/06/16 06:18:45;;;;;;;11.10;4.47;;;21.60;57.30;;;;;;5044713;28;20063;-69
2022/06/16 06:21:11;;;;;;;8.75;4.03;;;21.70;57.30;;;;;;5045905;28;20511;-69
2022/06/16 06:23:37;;;;;;;12.07;4.30;;;21.70;57.40;;;;;;5046973;28;20485;-68
2022/06/16 06:26:02;;;;;;;8.23;3.30;;;21.70;57.60;;;;;;5046210;28;20127;-66
2022/06/16 06:28:28;;;;;;;10.75;4.30;;;21.70;57.60;;;;;;5044074;28;20521;-67
2022/06/16 06:30:54;;;;;;;11.93;3.97;;;21.70;57.60;;;;;;5046776;28;20401;-67
2022/06/16 06:33:19;;;;;;;10.32;3.72;;;21.70;57.70;;;;;;5045115;28;20043;-68
2022/06/16 06:35:46;;;;;;;10.63;5.25;;;21.70;57.70;;;;;;5048080;28;20101;-68
2022/06/16 06:38:12;;;;;;;13.75;6.07;;;21.70;58.00;;;;;;5047666;28;20029;-67
2022/06/16 06:40:38;;;;;;;14.23;6.10;;;21.60;58.30;;;;;;5061602;28;20408;-67
2022/06/16 06:43:04;;;;;;;10.65;5.60;;;21.60;58.30;;;;;;5046442;28;20102;-67
2022/06/16 06:45:30;;;;;;;11.98;5.97;;;21.60;58.50;;;;;;5047576;28;20580;-67
2022/06/16 06:47:56;;;;;;;12.23;5.13;;;21.60;58.40;;;;;;5048751;28;20032;-67
2022/06/16 06:50:28;;;;;;;10.88;5.68;;;21.60;59.50;;;;;;5047718;28;20036;-67
2022/06/16 06:52:54;;;;;;;10.43;4.90;;;21.60;58.60;;;;;;5047887;28;20477;-68
2022/06/16 06:55:20;;;;;;;9.95;4.40;;;21.60;58.70;;;;;;5045605;28;20039;-67
2022/06/16 06:57:46;;;;;;;11.98;4.53;;;21.70;58.80;;;;;;5048176;28;20564;-67
2022/06/16 07:00:13;;;;;;;10.18;4.82;;;21.60;58.80;;;;;;5048142;28;20112;-67
2022/06/16 07:02:39;;;;;;;10.70;4.60;;;21.70;58.90;;;;;;5047062;28;20033;-67
2022/06/16 07:05:05;;;;;;;11.60;4.43;;;21.70;58.80;;;;;;5046239;28;20033;-68
2022/06/16 07:07:31;;;;;;;14.45;4.97;;;21.70;58.80;;;;;;5045611;28;20042;-68
2022/06/16 07:09:56;;;;;;;12.63;4.72;;;21.60;59.00;;;;;;5028116;28;20562;-69
2022/06/16 07:12:22;;;;;;;13.25;4.88;;;21.70;59.00;;;;;;5043867;28;20025;-68
2022/06/16 07:14:49;;;;;;;13.02;4.78;;;21.70;60.10;;;;;;5049014;28;20072;-69
2022/06/16 07:17:16;;;;;;;9.57;4.05;;;21.70;59.20;;;;;;5046457;28;20035;-68
2022/06/16 07:19:42;;;;;;;12.55;5.00;;;21.70;59.20;;;;;;5062975;28;20113;-68
2022/06/16 07:22:07;;;;;;;10.20;4.38;;;21.60;59.70;;;;;;5047469;28;20448;-68
2022/06/16 07:24:33;;;;;;;12.25;4.50;;;21.70;60.00;;;;;;5045600;28;20568;-68
2022/06/16 07:26:59;;;;;;;10.40;4.57;;;21.70;59.90;;;;;;5047998;28;20029;-68
2022/06/16 07:29:25;;;;;;;13.02;4.78;;;21.70;59.90;;;;;;5046485;28;20021;-69
2022/06/16 07:31:51;;;;;;;11.68;4.68;;;21.60;60.00;;;;;;5062222;28;20067;-68
2022/06/16 07:34:17;;;;;;;10.98;4.55;;;21.70;60.20;;;;;;5047126;28;20025;-67
2022/06/16 07:36:42;;;;;;;9.85;4.25;;;21.70;60.10;;;;;;5045373;28;20040;-68
2022/06/16 07:39:08;;;;;;;14.25;4.75;;;21.70;60.20;;;;;;5045344;28;20108;-69
2022/06/16 07:41:37;;;;;;;13.63;4.50;;;21.70;60.10;;;;;;5046807;28;20057;-69
2022/06/16 07:44:04;;;;;;;13.45;4.78;;;21.70;60.10;;;;;;5046895;28;20098;-69
2022/06/16 07:46:30;;;;;;;15.95;4.63;;;21.70;60.00;;;;;;5060680;28;20103;-67
2022/06/16 07:48:56;;;;;;;12.07;4.05;;;21.70;60.30;;;;;;5046451;28;20017;-68
2022/06/16 07:51:21;;;;;;;11.13;4.07;;;21.70;60.10;;;;;;5046619;28;20040;-68
2022/06/16 07:53:48;;;;;;;12.27;4.30;;;21.80;59.90;;;;;;5048384;28;20421;-67
2022/06/16 07:56:14;;;;;;;11.20;4.40;;;21.80;59.80;;;;;;5045761;28;20032;-68
2022/06/16 07:58:40;;;;;;;10.25;3.85;;;21.80;59.60;;;;;;5046023;28;20515;-68
2022/06/16 08:01:07;;;;;;;13.63;3.85;;;21.80;59.60;;;;;;5045152;28;20041;-67
2022/06/16 08:03:34;;;;;;;11.32;3.90;;;21.80;59.60;;;;;;5046216;28;20032;-68
2022/06/16 08:05:59;;;;;;;11.85;4.10;;;21.80;59.50;;;;;;5047050;28;20063;-68
2022/06/16 08:08:25;;;;;;;10.23;3.80;;;21.90;59.50;;;;;;5061553;28;20033;-67
2022/06/16 08:10:51;;;;;;;13.25;3.90;;;21.90;60.50;;;;;;5045741;28;20029;-67
2022/06/16 08:13:18;;;;;;;12.43;3.78;;;21.90;59.30;;;;;;5044904;28;20040;-68
2022/06/16 08:15:46;;;;;;;10.25;3.75;;;21.90;59.40;;;;;;5045787;28;20078;-67
2022/06/16 08:18:16;;;;;;;11.60;3.58;;;21.90;59.40;;;;;;5046575;28;20493;-67
2022/06/16 08:20:42;;;;;;;12.85;3.90;;;21.90;59.30;;;;;;5045099;28;20029;-68
2022/06/16 08:23:08;;;;;;;13.57;4.28;;;21.90;59.40;;;;;;5044542;28;20021;-67
2022/06/16 08:25:34;;;;;;;11.18;3.90;;;21.90;59.60;;;;;;5044698;28;20094;-67
2022/06/16 08:28:01;;;;;;;11.77;4.05;;;21.90;59.50;;;;;;5045430;28;20035;-67
2022/06/16 08:30:27;;;;;;;8.52;3.35;;;21.90;59.60;;;;;;5061240;28;20032;-68
2022/06/16 08:32:52;;;;;;;12.45;4.22;;;21.90;59.60;;;;;;5046462;28;20020;-68
2022/06/16 08:35:18;;;;;;;10.48;3.38;;;21.90;60.30;;;;;;5045962;28;20086;-68
2022/06/16 08:37:44;;;;;;;10.90;3.33;;;21.90;59.70;;;;;;5045700;28;20028;-68
2022/06/16 08:40:10;;;;;;;10.60;3.78;;;21.90;59.70;;;;;;5045721;28;20094;-70
2022/06/16 08:43:02;;;;;;;10.25;3.55;;;21.90;59.90;;;;;;5045731;28;20555;-70
2022/06/16 08:45:30;;;;;;;10.70;3.28;;;21.90;59.80;;;;;;5041664;28;20057;-70
2022/06/16 08:48:05;;;;;;;8.27;3.65;;;22.00;59.80;;;;;;5046743;28;20087;-70
2022/06/16 08:50:52;;;;;;;8.73;3.45;;;22.00;59.70;;;;;;5044911;28;20036;-70
2022/06/16 08:53:24;;;;;;;8.57;3.50;;;22.00;59.50;;;;;;5060092;28;20044;-70
2022/06/16 08:55:49;;;;;;;8.43;3.45;;;22.00;59.40;;;;;;5045025;28;20029;-70
2022/06/16 08:58:15;;;;;;;18.85;3.78;;;22.00;59.40;;;;;;5044304;28;20029;-70
2022/06/16 09:01:15;;;;;;;9.13;3.30;;;22.00;59.70;;;;;;5042416;28;20029;-70
2022/06/16 09:03:48;;;;;;;11.05;3.50;;;22.00;59.40;;;;;;5052814;28;20029;-70
2022/06/16 09:06:32;;;;;;;10.45;3.60;;;22.00;59.30;;;;;;5045791;28;20033;-70
2022/06/16 09:12:52;;;;;;;8.70;3.40;;;22.00;59.40;;;;;;4987841;28;20541;-68
2022/06/16 09:15:42;;;;;;;11.40;3.67;;;22.10;59.50;;;;;;5003327;28;20085;-68
2022/06/16 09:18:18;;;;;;;9.68;3.70;;;22.10;59.60;;;;;;5003899;28;20034;-68
2022/06/16 09:20:49;;;;;;;10.32;3.55;;;22.10;59.50;;;;;;4982729;28;20200;-68
2022/06/16 09:23:33;;;;;;;8.95;3.40;;;22.20;59.40;;;;;;4985301;28;20033;-68
2022/06/16 09:26:23;;;;;;;9.88;3.42;;;22.20;59.40;;;;;;5002079;28;20045;-67
2022/06/16 09:29:01;;;;;;;13.20;3.53;;;22.20;59.30;;;;;;5003108;28;20636;-68
2022/06/16 09:31:55;;;;;;;9.40;3.58;;;22.20;59.30;;;;;;5000462;28;20026;-67
2022/06/16 09:34:44;;;;;;;9.70;3.53;;;22.20;59.20;;;;;;4982276;28;20153;-67
2022/06/16 09:37:15;;;;;;;10.23;3.65;;;22.20;59.10;;;;;;4997571;28;20044;-67
2022/06/16 09:39:45;;;;;;;10.07;3.60;;;22.20;59.10;;;;;;5009801;28;20120;-68
2022/06/16 09:42:38;;;;;;;11.68;3.53;;;22.30;59.30;;;;;;5006954;28;20026;-68
2022/06/16 09:45:20;;;;;;;10.18;3.40;;;22.30;59.20;;;;;;5012179;28;20037;-68
2022/06/16 09:47:50;;;;;;;8.18;3.25;;;22.30;59.20;;;;;;5071488;28;20029;-68
2022/06/16 09:50:37;;;;;;;10.68;3.60;;;22.30;59.20;;;;;;5047109;28;20021;-68
2022/06/16 09:53:04;;;;;;;10.40;3.08;;;22.30;59.20;;;;;;5063273;28;20043;-68
2022/06/16 09:55:34;;;;;;;7.25;3.42;;;22.40;59.20;;;;;;5047937;28;20496;-69
2022/06/16 09:58:23;;;;;;;10.05;3.40;;;22.30;59.20;;;;;;5047578;28;20024;-68
2022/06/16 10:00:50;;;;;;;7.43;3.17;;;22.40;59.10;;;;;;5062067;28;20536;-68
2022/06/16 10:03:30;;;;;;;11.15;3.42;;;22.40;59.00;;;;;;5048460;28;20029;-68
2022/06/16 10:06:05;;;;;;;7.90;3.45;;;22.40;59.00;;;;;;5048192;28;20118;-68
2022/06/16 10:08:41;;;;;;;9.00;3.53;;;22.40;59.10;;;;;;5049219;28;20032;-68
2022/06/16 10:11:26;;;;;;;8.18;3.50;;;22.40;58.90;;;;;;5063120;28;20033;-68
2022/06/16 10:14:16;;;;;;;9.38;3.70;;;22.50;59.10;;;;;;5030990;28;20021;-68
2022/06/16 10:16:59;;;;;;;8.43;3.60;;;22.50;58.90;;;;;;5046727;28;20503;-68
2022/06/16 10:19:28;;;;;;;7.78;3.60;;;22.50;59.00;;;;;;5046372;28;20036;-70
2022/06/16 10:21:54;;;;;;;8.98;3.38;;;22.50;58.90;;;;;;5063981;28;20040;-70
2022/06/16 10:24:21;;;;;;;9.60;3.10;;;22.60;59.20;;;;;;5062428;28;20021;-70
2022/06/16 10:26:47;;;;;;;7.47;2.88;;;22.60;57.30;;;;;;5064762;28;20071;-70
2022/06/16 10:29:26;;;;;;;10.20;2.90;;;22.70;55.70;;;;;;5047856;28;20504;-75
2022/06/16 10:31:53;;;;;;;7.35;2.40;;;22.70;55.30;;;;;;5044098;28;20029;-76
2022/06/16 10:34:38;;;;;;;7.65;2.55;;;22.80;54.60;;;;;;5063162;28;20501;-74
2022/06/16 10:37:25;;;;;;;7.95;2.80;;;22.80;54.60;;;;;;5047344;28;20071;-76
2022/06/16 10:39:55;;;;;;;8.30;2.55;;;22.80;54.20;;;;;;5047429;28;20029;-75
2022/06/16 10:42:23;;;;;;;7.35;2.50;;;22.90;54.20;;;;;;5047577;28;20025;-75
2022/06/16 10:44:58;;;;;;;7.57;2.35;;;22.90;53.30;;;;;;5048419;28;20036;-76
2022/06/16 10:47:31;;;;;;;;;;;22.90;52.70;;;;;;5063933;28;20033;-76
2022/06/16 10:49:57;;;;;;;9.88;2.30;;;22.90;52.40;;;;;;5063314;28;20464;-76
2022/06/16 10:52:35;;;;;;;8.75;2.00;;;23.00;52.00;;;;;;5062327;28;20031;-75
2022/06/16 10:55:09;;;;;;;8.43;2.10;;;22.90;51.80;;;;;;5046914;28;20021;-76
2022/06/16 10:57:49;;;;;;;6.77;2.20;;;23.00;51.80;;;;;;5047827;28;20051;-76
2022/06/16 11:00:20;;;;;;;8.38;2.20;;;23.00;51.70;;;;;;5045556;28;20052;-76
2022/06/16 11:03:25;;;;;;;6.03;2.30;;;23.00;51.60;;;;;;5047226;28;20032;-76
2022/06/16 11:05:58;;;;;;;6.07;2.17;;;23.10;52.70;;;;;;5045635;28;20055;-76
2022/06/16 11:08:32;;;;;;;6.05;2.25;;;23.10;51.10;;;;;;5046793;28;20040;-76
2022/06/16 11:10:58;;;;;;;6.72;2.30;;;23.10;51.30;;;;;;5030255;28;20029;-74
2022/06/16 11:13:45;;;;;;;6.93;2.05;;;23.10;51.50;;;;;;5061846;28;20025;-76
2022/06/16 11:16:24;;;;;;;7.07;2.00;;;23.10;51.10;;;;;;5046739;28;20647;-77
2022/06/16 11:18:53;;;;;;;7.63;2.08;;;23.10;50.40;;;;;;5031468;28;20029;-76
2022/06/16 11:21:24;;;;;;;6.40;1.85;;;23.10;50.60;;;;;;5028357;28;20028;-76
2022/06/16 11:23:54;;;;;;;6.20;1.92;;;23.10;50.40;;;;;;5030753;28;20886;-76
2022/06/16 11:26:31;;;;;;;6.22;2.25;;;23.10;50.40;;;;;;5046729;28;20040;-76
2022/06/16 11:28:58;;;;;;;7.60;2.05;;;23.10;49.90;;;;;;5046738;28;20112;-76
2022/06/16 11:31:33;;;;;;;5.90;1.92;;;23.20;50.20;;;;;;5045469;28;20021;-77
2022/06/16 11:34:19;;;;;;;3.78;1.60;;;23.20;49.50;;;;;;5062056;28;20013;-76
2022/06/16 11:37:06;;;;;;;3.53;1.58;;;23.20;49.00;;;;;;5046545;28;20073;-76
2022/06/16 11:39:50;;;;;;;4.65;1.92;;;23.20;48.70;;;;;;5045180;28;20489;-76
2022/06/16 11:42:28;;;;;;;5.63;1.80;;;23.30;48.30;;;;;;5045383;28;20909;-76
2022/06/16 11:45:16;;;;;;;5.40;1.90;;;23.30;47.90;;;;;;5047276;28;20028;-76
2022/06/16 11:47:49;;;;;;;6.10;1.80;;;23.30;48.00;;;;;;5059356;28;20029;-76
2022/06/16 11:50:28;;;;;;;5.40;1.90;;;23.30;48.50;;;;;;5044849;28;20036;-76
2022/06/16 11:53:05;;;;;;;7.53;1.80;;;23.30;47.80;;;;;;5058988;28;20047;-77
2022/06/16 11:56:03;;;;;;;3.65;1.60;;;23.40;47.60;;;;;;5044286;28;20062;-77
2022/06/16 11:58:51;;;;;;;5.10;1.55;;;23.40;46.90;;;;;;5058300;28;20024;-73
2022/06/16 12:01:21;;;;;;;3.92;1.50;;;23.40;46.70;;;;;;5044708;28;20107;-73
2022/06/16 12:04:21;;;;;;;4.45;1.85;;;23.40;47.00;;;;;;5043417;28;20116;-73
2022/06/16 12:07:35;;;;;;;14.10;1.70;;;23.40;48.00;;;;;;5044761;28;20111;-73
2022/06/16 12:10:29;;;;;;;5.47;1.88;;;23.40;48.70;;;;;;5003758;28;20022;-73
2022/06/16 12:13:16;;;;;;;6.60;1.80;;;23.40;49.00;;;;;;4989802;28;20038;-73
2022/06/16 12:15:49;;;;;;;6.05;1.92;;;23.40;49.40;;;;;;5009002;28;20029;-73
2022/06/16 12:18:25;;;;;;;7.65;1.90;;;23.40;49.50;;;;;;4986917;28;20125;-73
2022/06/16 12:21:21;;;;;;;7.18;1.75;;;23.50;49.80;;;;;;5002183;28;20043;-73
2022/06/16 12:24:14;;;;;;;3.65;1.90;;;23.40;49.80;;;;;;4994307;28;20145;-73
2022/06/16 12:26:56;;;;;;;5.45;1.63;;;23.50;50.10;;;;;;4999358;28;20038;-73
2022/06/16 12:29:48;;;;;;;4.50;1.55;;;23.50;50.20;;;;;;4984029;28;20546;-73
2022/06/16 12:32:18;;;;;;;3.92;1.73;;;23.50;50.40;;;;;;5002114;28;20128;-73
2022/06/16 12:35:07;;;;;;;5.60;1.73;;;23.50;50.50;;;;;;4998521;28;20713;-73
2022/06/16 12:37:39;;;;;;;4.65;1.80;;;23.60;50.60;;;;;;5000592;28;20490;-73
2022/06/16 12:40:13;;;;;;;5.13;1.80;;;23.60;51.00;;;;;;4986529;28;20192;-73
2022/06/16 12:42:47;;;;;;;;;;;23.60;50.70;;;;;;4983339;28;20604;-69
2022/06/16 12:45:21;;;;;;;3.35;1.60;;;23.60;50.90;;;;;;5061759;28;19927;-73
2022/06/16 12:47:59;;;;;;;5.10;1.80;;;23.70;50.90;;;;;;5059658;28;20485;-73
2022/06/16 12:50:33;;;;;;;6.72;1.75;;;23.70;50.90;;;;;;5044209;28;20043;-73
2022/06/16 12:53:10;;;;;;;4.22;1.80;;;23.70;51.00;;;;;;5056101;28;20025;-72
2022/06/16 12:55:51;;;;;;;3.28;1.70;;;23.70;51.20;;;;;;5055209;28;20362;-73
2022/06/16 12:58:29;;;;;;;5.57;1.80;;;23.70;51.40;;;;;;5038242;28;20037;-73
2022/06/16 13:00:58;;;;;;;3.90;1.70;;;23.70;51.70;;;;;;5039205;28;20375;-73
2022/06/16 13:03:30;;;;;;;4.57;1.92;;;23.70;51.70;;;;;;5057875;28;20064;-73
2022/06/16 13:05:57;;;;;;;6.43;1.80;;;23.80;51.00;;;;;;5045637;28;20111;-75
2022/06/16 13:08:23;;;;;;;3.58;1.70;;;24.00;49.20;;;;;;5059090;28;20051;-76
2022/06/16 13:11:01;;;;;;;6.68;1.80;;;24.00;47.80;;;;;;5058395;28;22137;-76
2022/06/16 13:13:30;;;;;;;3.55;1.60;;;24.00;47.80;;;;;;5044777;28;20035;-76
2022/06/16 13:15:58;;;;;;;5.97;1.60;;;24.00;48.50;;;;;;5057955;28;20041;-73
2022/06/16 13:18:25;;;;;;;7.38;1.90;;;24.00;47.40;;;;;;5039123;28;20390;-73
2022/06/16 13:20:54;;;;;;;4.13;1.65;;;24.00;48.40;;;;;;5048063;28;20113;-73
2022/06/16 13:23:35;;;;;;;5.53;1.70;;;24.00;47.80;;;;;;5059795;28;20033;-73
2022/06/16 13:26:06;;;;;;;5.55;1.83;;;24.00;48.50;;;;;;5048105;28;20049;-73
2022/06/16 13:28:39;;;;;;;5.60;1.63;;;24.00;48.80;;;;;;5047697;28;20025;-73
2022/06/16 13:31:13;;;;;;;5.05;1.70;;;24.00;48.80;;;;;;5049014;28;20718;-73
2022/06/16 13:33:45;;;;;;;7.55;1.90;;;24.00;48.90;;;;;;5058080;28;20687;-74
2022/06/16 13:36:14;;;;;;;6.40;1.65;;;24.10;48.80;;;;;;5047099;28;20032;-75
2022/06/16 13:38:42;;;;;;;6.35;1.80;;;24.10;48.80;;;;;;5047198;28;20047;-75